Time;durP1;ratioP1;P1;durP2;ratioP2;P2;SDS_P1;SDS_P2;PMS_P1;PMS_P2;Temp;Humidity;BMP_temperature;BMP_pressure;BME280_temperature;BME280_humidity;BME280_pressure;Samples;Min_cycle;Max_cycle;Signal;HPM_P1;HPM_P2
2021/09/26 00:01:50;;;;;;;;;;;;;;;;;;;;;
2021/09/26 00:04:38;;;;;;;;;18.67;15.67;;;;;19.46;66.13;101054.56;6294258;22;69647;-89
2021/09/26 00:07:03;;;;;;;;;19.00;16.67;;;;;19.41;66.05;101038.66;6292581;22;45184;-90
2021/09/26 00:09:29;;;;;;;;;21.00;15.67;;;;;19.37;66.04;101044.06;6289428;22;47016;-90
2021/09/26 00:12:09;;;;;;;;;25.00;20.33;;;;;19.40;65.95;101065.31;6282538;22;45298;-90
2021/09/26 00:14:41;;;;;;;;;20.00;18.33;;;;;19.48;66.04;101073.25;6265427;22;45449;-90
2021/09/26 00:17:06;;;;;;;;;15.00;14.67;;;;;19.41;65.92;101073.31;6293179;22;44625;-91
2021/09/26 00:19:32;;;;;;;;;20.33;16.00;;;;;19.38;65.89;101077.78;6264762;22;46078;-92
2021/09/26 00:21:57;;;;;;;;;18.00;18.00;;;;;19.30;66.11;101057.47;6259841;22;45114;-91
2021/09/26 00:24:25;;;;;;;;;19.00;19.00;;;;;19.26;66.00;101050.44;6286385;22;45143;-91
2021/09/26 00:27:02;;;;;;;;;23.33;18.33;;;;;19.27;65.93;101053.97;6286978;22;45236;-91
2021/09/26 00:29:27;;;;;;;;;19.50;16.50;;;;;19.24;66.05;101060.22;6258626;22;47011;-90
2021/09/26 00:32:10;;;;;;;;;17.67;17.00;;;;;19.24;65.92;101054.91;6293289;22;45247;-91
2021/09/26 00:34:36;;;;;;;;;19.67;16.00;;;;;19.16;66.21;101048.78;6297743;22;44708;-92
2021/09/26 00:37:29;;;;;;;;;15.33;15.00;;;;;19.32;66.07;101092.09;6267344;22;44733;-92
2021/09/26 00:40:08;;;;;;;;;15.00;14.33;;;;;19.31;66.11;101101.00;6252553;22;47052;-92
2021/09/26 00:42:44;;;;;;;;;;;;;;;;;;;;;
2021/09/26 00:45:22;;;;;;;;;17.00;16.67;;;;;19.18;66.34;101090.50;6277955;22;70065;-92
2021/09/26 00:47:48;;;;;;;;;17.33;15.67;;;;;19.20;66.56;101090.47;6252711;22;45520;-91
2021/09/26 00:50:33;;;;;;;;;;;;;;;;;;;;;
2021/09/26 00:52:58;;;;;;;;;20.67;18.33;;;;;19.14;66.21;101077.22;6278996;22;72632;-92
2021/09/26 00:55:24;;;;;;;;;18.00;15.67;;;;;19.24;66.54;101091.31;6253823;22;45122;-91
2021/09/26 00:57:50;;;;;;;;;18.33;17.67;;;;;19.20;66.48;101082.50;6254089;22;44986;-91
2021/09/26 01:00:18;;;;;;;;;17.33;16.00;;;;;19.18;66.40;101078.97;6253574;22;48405;-93
2021/09/26 01:02:46;;;;;;;;;23.00;14.00;;;;;19.14;66.43;101066.56;6253132;22;45479;-92
2021/09/26 01:05:13;;;;;;;;;14.00;14.00;;;;;19.14;66.15;101061.22;6253382;22;45190;-91
2021/09/26 01:07:56;;;;;;;;;16.67;13.67;;;;;19.22;66.31;101080.69;6253157;22;45191;-91
2021/09/26 01:10:59;;;;;;;;;13.33;13.33;;;;;19.27;66.07;101089.47;6252398;22;48101;-91
2021/09/26 01:13:58;;;;;;;;;16.33;14.00;;;;;19.27;66.17;101107.28;6279574;22;45350;-92
2021/09/26 01:17:37;;;;;;;;;19.00;14.67;;;;;19.17;66.15;101087.84;6252143;22;45165;-91
2021/09/26 01:20:14;;;;;;;;;13.00;13.00;;;;;19.25;66.01;101093.97;6071786;23;45354;-90
2021/09/26 01:22:59;;;;;;;;;11.00;11.00;;;;;19.16;66.20;101086.97;6095700;23;47235;-91
2021/09/26 01:26:01;;;;;;;;;11.00;11.00;;;;;19.24;66.11;101097.53;6096319;23;45382;-92
2021/09/26 01:29:13;;;;;;;;;13.33;12.33;;;;;19.21;66.22;101095.78;6097585;23;45422;-92
2021/09/26 01:31:58;;;;;;;;;12.67;12.67;;;;;19.09;65.78;101088.81;6023891;23;44819;-92
2021/09/26 01:34:30;;;;;;;;;13.67;13.67;;;;;19.08;65.84;101096.81;6038029;23;46358;-94
2021/09/26 01:37:04;;;;;;;;;12.00;11.33;;;;;19.14;66.13;101114.50;6037566;23;46014;-92
2021/09/26 01:39:36;;;;;;;;;11.67;10.33;;;;;19.15;65.85;101121.63;6013640;23;45269;-92
2021/09/26 01:42:10;;;;;;;;;15.33;11.33;;;;;19.16;66.04;101128.75;6013597;23;45562;-91
2021/09/26 01:45:29;;;;;;;;;16.67;14.33;;;;;19.17;66.15;101119.81;6013070;23;47549;-91
2021/09/26 01:48:14;;;;;;;;;15.00;12.67;;;;;19.05;66.09;101096.84;5980809;23;45973;-91
2021/09/26 01:50:43;;;;;;;;;15.67;13.00;;;;;19.10;66.33;101103.88;5958079;23;45311;-90
2021/09/26 01:53:11;;;;;;;;;16.33;16.33;;;;;19.16;66.01;101112.75;6004370;23;45493;-90
2021/09/26 01:55:38;;;;;;;;;19.67;15.67;;;;;19.06;66.31;101091.50;6079849;23;47312;-90
2021/09/26 01:58:04;;;;;;;;;15.33;13.33;;;;;19.04;66.40;101082.63;6119868;23;44958;-89
2021/09/26 02:00:30;;;;;;;;;16.00;15.00;;;;;19.07;66.15;101087.06;6118572;23;44724;-90
2021/09/26 02:02:57;;;;;;;;;16.00;13.67;;;;;19.08;66.16;101096.81;6114850;23;44732;-90
2021/09/26 02:05:24;;;;;;;;;11.67;9.33;;;;;19.05;66.24;101095.06;6074235;23;47224;-91
2021/09/26 02:07:52;;;;;;;;;11.67;10.00;;;;;19.09;66.57;101099.47;6107646;23;45521;-91
2021/09/26 02:10:21;;;;;;;;;13.67;13.67;;;;;19.00;66.25;101088.03;6102027;23;45251;-89
2021/09/26 02:12:48;;;;;;;;;14.33;14.00;;;;;19.02;66.55;101087.09;6125664;23;45245;-90
2021/09/26 02:15:18;;;;;;;;;13.67;13.67;;;;;19.00;66.43;101091.56;6100746;23;47963;-91
2021/09/26 02:17:48;;;;;;;;;15.00;10.33;;;;;19.13;66.45;101107.41;6101411;23;45691;-90
2021/09/26 02:20:16;;;;;;;;;18.33;14.67;;;;;18.98;66.51;101086.28;6125612;23;45171;-91
2021/09/26 02:22:43;;;;;;;;;13.00;12.33;;;;;19.12;66.21;101117.19;6212892;22;45586;-91
2021/09/26 02:25:12;;;;;;;;;17.67;14.67;;;;;19.05;66.71;101103.06;6216406;22;47112;-90
2021/09/26 02:27:38;;;;;;;;;13.67;12.00;;;;;19.02;66.92;101105.75;6216852;22;45212;-89
2021/09/26 02:30:06;;;;;;;;;12.67;12.00;;;;;18.92;66.89;101082.78;6242219;22;45277;-90
2021/09/26 02:32:33;;;;;;;;;12.67;11.67;;;;;19.07;66.71;101108.38;6216684;22;45424;-89
2021/09/26 02:34:58;;;;;;;;;19.33;16.00;;;;;18.89;66.88;101073.06;6243834;22;47364;-91
2021/09/26 02:37:24;;;;;;;;;19.67;16.67;;;;;18.94;66.89;101087.22;6244352;22;45316;-91
2021/09/26 02:42:34;;;;;;;;;16.67;14.33;;;;;19.04;67.30;101095.97;6250342;22;60892;-91
2021/09/26 02:45:22;;;;;;;;;15.67;14.00;;;;;19.03;67.00;101102.22;6228530;22;47783;-92
2021/09/26 02:48:08;;;;;;;;;18.00;17.00;;;;;18.96;67.07;101092.50;6231780;22;44776;-91
2021/09/26 02:53:10;;;;;;;;;14.67;13.67;;;;;19.00;67.32;101091.56;6268542;22;45497;-91
2021/09/26 02:55:39;;;;;;;;;13.67;12.67;;;;;18.94;67.24;101081.00;6255180;22;47177;-92
2021/09/26 02:59:10;;;;;;;;;18.00;13.00;;;;;19.02;67.10;101100.44;6254254;22;45330;-93
2021/09/26 03:01:36;;;;;;;;;13.67;13.67;;;;;18.95;67.36;101077.44;6218002;22;45209;-93
2021/09/26 03:04:03;;;;;;;;;14.33;12.33;;;;;18.93;67.09;101069.44;6206373;22;45338;-91
2021/09/26 03:12:25;;;;;;;;;17.00;14.00;;;;;18.90;67.13;101065.94;6190324;23;45380;-93
2021/09/26 03:14:51;;;;;;;;;13.33;11.67;;;;;18.78;67.24;101049.22;6164419;23;45264;-91
2021/09/26 03:17:30;;;;;;;;;20.00;15.67;;;;;18.92;67.36;101077.47;6180363;23;46766;-91
2021/09/26 03:20:06;;;;;;;;;18.33;14.67;;;;;18.90;67.36;101063.28;6188061;23;45373;-91
2021/09/26 03:25:42;;;;;;;;;16.00;14.67;;;;;18.86;67.51;101058.00;6097329;23;45393;-90
2021/09/26 03:31:40;;;;;;;;;18.00;18.00;;;;;18.80;67.47;101039.44;6010450;23;45178;-91
2021/09/26 03:34:24;;;;;;;;;19.00;15.00;;;;;18.83;67.53;101051.81;6011522;23;45130;-91
2021/09/26 03:36:50;;;;;;;;;19.00;17.67;;;;;18.71;67.96;101027.13;6011288;23;45193;-91
2021/09/26 03:39:15;;;;;;;;;17.00;15.67;;;;;18.75;67.84;101036.81;6010229;23;47034;-91
2021/09/26 03:41:41;;;;;;;;;17.33;15.67;;;;;18.69;67.63;101039.56;5987709;23;45473;-90
2021/09/26 03:44:06;;;;;;;;;19.67;13.67;;;;;18.81;67.63;101059.84;5987150;23;45339;-89
2021/09/26 03:46:31;;;;;;;;;17.33;15.67;;;;;18.70;67.49;101041.31;6009751;23;45449;-89
2021/09/26 03:48:57;;;;;;;;;15.67;14.67;;;;;18.77;67.94;101062.53;6005844;23;48359;-90
2021/09/26 03:51:42;;;;;;;;;16.67;15.67;;;;;18.75;67.62;101054.59;6067890;23;45350;-91
2021/09/26 03:54:20;;;;;;;;;22.00;19.33;;;;;18.71;67.82;101047.53;6048903;23;45348;-91
2021/09/26 03:57:11;;;;;;;;;18.00;17.33;;;;;18.75;68.06;101054.59;6051603;23;45511;-90
2021/09/26 03:59:38;;;;;;;;;14.67;13.67;;;;;18.72;67.81;101044.84;6076212;23;45476;-90
2021/09/26 04:05:30;;;;;;;;;15.67;13.00;;;;;18.72;67.64;101043.94;6122250;23;44692;-90
2021/09/26 04:08:35;;;;;;;;;14.33;14.33;;;;;18.79;67.97;101045.66;6136102;23;44779;-91
2021/09/26 04:11:00;;;;;;;;;17.33;16.67;;;;;18.62;67.85;101016.56;6126237;23;47163;-91
2021/09/26 04:13:26;;;;;;;;;21.00;17.00;;;;;18.71;67.60;101034.22;6241224;22;45259;-90
2021/09/26 04:15:51;;;;;;;;;19.00;15.00;;;;;18.64;67.82;101022.75;6285142;22;45239;-90
2021/09/26 04:18:17;;;;;;;;;13.33;13.33;;;;;18.61;68.06;101015.66;6285215;22;45406;-90
2021/09/26 04:20:42;;;;;;;;;18.67;15.33;;;;;18.69;67.90;101028.03;6268349;22;47276;-90
2021/09/26 04:23:07;;;;;;;;;17.33;15.33;;;;;18.68;68.21;101029.78;6252485;22;45313;-89
2021/09/26 04:25:39;;;;;;;;;17.67;16.00;;;;;18.71;67.93;101035.09;6280139;22;45414;-90
2021/09/26 04:30:49;;;;;;;;;16.67;15.00;;;;;18.58;68.31;101010.41;6238051;22;73871;-89
2021/09/26 04:33:17;;;;;;;;;14.00;14.00;;;;;18.70;68.23;101027.09;6221944;22;45498;-90
2021/09/26 04:35:56;;;;;;;;;19.00;16.67;;;;;18.62;68.26;101005.91;6221274;22;45356;-89
2021/09/26 04:38:29;;;;;;;;;15.00;13.00;;;;;18.57;68.22;101003.28;6223872;22;45443;-89
2021/09/26 04:41:15;;;;;;;;;17.00;16.00;;;;;18.65;68.50;101021.84;6230464;22;47818;-89
2021/09/26 04:43:40;;;;;;;;;18.00;17.00;;;;;18.52;68.54;100994.50;6229876;22;45181;-89
2021/09/26 04:46:06;;;;;;;;;19.67;15.00;;;;;18.54;68.27;100995.34;6227409;22;44688;-89
2021/09/26 04:48:31;;;;;;;;;14.33;12.33;;;;;18.57;68.46;101008.63;6227096;22;45225;-90
2021/09/26 04:50:57;;;;;;;;;15.33;14.00;;;;;18.49;68.51;101005.16;6228536;22;47060;-90
2021/09/26 04:53:22;;;;;;;;;14.33;14.33;;;;;18.60;68.75;101024.56;6229216;22;45395;-89
2021/09/26 04:55:49;;;;;;;;;16.33;14.67;;;;;18.55;68.36;101017.53;6261519;22;45224;-90
2021/09/26 04:58:15;;;;;;;;;21.67;15.67;;;;;18.48;68.83;101008.75;6234433;22;45260;-89
2021/09/26 05:00:46;;;;;;;;;17.00;17.00;;;;;18.44;69.03;101004.34;6265845;22;45463;-89
2021/09/26 05:03:11;;;;;;;;;21.00;18.33;;;;;18.53;68.94;101030.84;6236190;22;44895;-89
2021/09/26 05:05:37;;;;;;;;;21.67;16.33;;;;;18.51;68.85;101022.00;6240727;22;45306;-90
2021/09/26 05:08:02;;;;;;;;;19.33;16.67;;;;;18.47;68.50;101029.16;6265527;22;45145;-88
2021/09/26 05:10:29;;;;;;;;;19.33;18.33;;;;;18.57;68.70;101051.22;6256218;22;45225;-90
2021/09/26 05:12:54;;;;;;;;;13.67;13.33;;;;;18.56;68.65;101061.88;6221680;22;45876;-91
2021/09/26 05:15:20;;;;;;;;;17.67;14.67;;;;;18.44;68.95;101039.84;6221580;22;45297;-89
2021/09/26 05:17:45;;;;;;;;;16.00;15.00;;;;;18.50;68.78;101063.72;6246119;22;45288;-84
2021/09/26 05:20:12;;;;;;;;;17.67;17.33;;;;;18.50;69.09;101054.84;6247678;22;45268;-84
2021/09/26 05:22:38;;;;;;;;;15.67;15.00;;;;;18.56;68.76;101060.13;6247890;22;45185;-86
2021/09/26 05:25:04;;;;;;;;;18.67;16.33;;;;;18.56;68.98;101061.88;6247971;22;45284;-86
2021/09/26 05:27:29;;;;;;;;;14.67;14.67;;;;;18.56;68.93;101070.75;6249523;22;45135;-86
2021/09/26 05:29:55;;;;;;;;;16.00;16.00;;;;;18.56;69.06;101081.41;6249093;22;45146;-85
2021/09/26 05:32:20;;;;;;;;;15.33;14.67;;;;;18.56;69.08;101097.38;6247525;22;45303;-88
2021/09/26 05:34:46;;;;;;;;;19.00;15.67;;;;;18.51;68.77;101091.22;6249244;22;45154;-84
2021/09/26 05:37:12;;;;;;;;;21.00;19.33;;;;;18.53;68.99;101097.41;6250221;22;45434;-87
2021/09/26 05:39:38;;;;;;;;;19.00;15.33;;;;;18.50;69.13;101086.81;6248940;22;47103;-85
2021/09/26 05:42:06;;;;;;;;;20.00;15.33;;;;;18.50;68.88;101092.13;6250055;22;45314;-85
2021/09/26 05:44:33;;;;;;;;;19.33;17.33;;;;;18.50;69.16;101093.00;6250232;22;45201;-85
2021/09/26 05:46:58;;;;;;;;;20.33;16.33;;;;;18.52;69.42;101100.97;6221945;22;45475;-84
2021/09/26 05:49:23;;;;;;;;;19.67;16.33;;;;;18.52;69.17;101091.22;6248247;22;46018;-86
2021/09/26 05:51:49;;;;;;;;;18.00;14.67;;;;;18.49;69.22;101080.59;6249220;22;45149;-85
2021/09/26 05:54:15;;;;;;;;;15.67;15.67;;;;;18.58;69.22;101100.03;6249538;22;45298;-85
2021/09/26 05:56:40;;;;;;;;;17.67;14.67;;;;;18.57;69.31;101103.59;6248378;22;45269;-85
2021/09/26 05:59:05;;;;;;;;;13.00;13.00;;;;;18.51;69.11;101104.53;6249104;22;45197;-83
2021/09/26 06:01:31;;;;;;;;;18.67;16.33;;;;;18.58;69.32;101121.31;6249323;22;45189;-84
2021/09/26 06:03:56;;;;;;;;;17.33;16.33;;;;;18.56;69.35;101131.09;6220090;22;45575;-84
2021/09/26 06:06:21;;;;;;;;;18.00;17.00;;;;;18.56;69.46;101134.66;6247211;22;45258;-84
2021/09/26 06:08:47;;;;;;;;;22.00;16.00;;;;;18.52;69.66;101128.50;6247857;22;45228;-84
2021/09/26 06:11:12;;;;;;;;;21.33;19.33;;;;;18.55;69.71;101137.34;6247168;22;45110;-84
2021/09/26 06:13:38;;;;;;;;;17.00;15.33;;;;;18.58;69.57;101134.63;6247251;22;45214;-85
2021/09/26 06:16:04;;;;;;;;;18.33;16.67;;;;;18.57;69.53;101125.75;6246528;22;45265;-82
2021/09/26 06:18:30;;;;;;;;;17.33;15.33;;;;;18.59;69.59;101131.94;6245816;22;46044;-82
2021/09/26 06:20:55;;;;;;;;;16.67;15.67;;;;;18.61;69.86;101140.81;6245621;22;45244;-81
2021/09/26 06:23:21;;;;;;;;;16.67;15.67;;;;;18.63;69.50;101140.81;6246762;22;45201;-81
2021/09/26 06:25:47;;;;;;;;;17.67;16.00;;;;;18.63;69.33;101146.13;6246268;22;45360;-80
2021/09/26 06:28:12;;;;;;;;;15.33;15.33;;;;;18.62;69.75;101147.91;6245888;22;45322;-81
2021/09/26 06:30:38;;;;;;;;;20.33;17.33;;;;;18.65;69.66;101148.78;6245374;22;45366;-81
2021/09/26 06:33:04;;;;;;;;;18.00;16.00;;;;;18.64;69.30;101147.88;6246067;22;45245;-81
2021/09/26 06:35:31;;;;;;;;;17.33;16.67;;;;;18.66;69.88;101153.19;6246826;22;45382;-90
2021/09/26 06:37:57;;;;;;;;;16.00;16.00;;;;;18.61;69.76;101142.59;6250499;22;45668;-86
2021/09/26 06:40:23;;;;;;;;;17.00;15.33;;;;;18.65;69.91;101154.09;6225000;22;45231;-86
2021/09/26 06:42:49;;;;;;;;;22.67;16.00;;;;;18.62;69.96;101145.25;6256163;22;45202;-87
2021/09/26 06:45:15;;;;;;;;;16.33;15.33;;;;;18.69;69.99;101158.50;6251455;22;45245;-79
2021/09/26 06:47:40;;;;;;;;;22.67;19.33;;;;;18.67;69.77;101158.53;6246535;22;46342;-82
2021/09/26 06:50:08;;;;;;;;;21.00;17.67;;;;;18.71;70.03;101151.38;6246338;22;45303;-81
2021/09/26 06:52:33;;;;;;;;;22.67;20.00;;;;;18.74;70.00;101164.69;6246122;22;45270;-82
2021/09/26 06:54:59;;;;;;;;;21.00;20.33;;;;;18.75;69.60;101164.66;6245924;22;45238;-83
2021/09/26 06:57:24;;;;;;;;;16.33;15.00;;;;;18.66;69.87;101156.75;6246131;22;45177;-82
2021/09/26 06:59:50;;;;;;;;;20.00;18.33;;;;;18.72;69.78;101172.66;6245059;22;45306;-80
2021/09/26 07:02:21;;;;;;;;;18.00;18.00;;;;;18.72;69.69;101172.66;6218491;22;45445;-81
2021/09/26 07:04:46;;;;;;;;;17.67;14.67;;;;;18.69;69.89;101171.81;6246305;22;45350;-81
2021/09/26 07:07:12;;;;;;;;;19.00;18.67;;;;;18.69;69.93;101174.47;6244993;22;45284;-81
2021/09/26 07:09:39;;;;;;;;;18.00;17.33;;;;;18.72;70.03;101169.09;6245517;22;45939;-81
2021/09/26 07:12:05;;;;;;;;;21.00;16.67;;;;;18.75;70.09;101171.75;6245491;22;45161;-81
2021/09/26 07:14:30;;;;;;;;;18.00;15.00;;;;;18.77;69.98;101185.94;6245137;22;45396;-81
2021/09/26 07:16:55;;;;;;;;;21.00;16.33;;;;;18.78;70.16;101176.19;6245867;22;46232;-80
2021/09/26 07:19:21;;;;;;;;;19.33;15.67;;;;;18.84;69.93;101181.44;6245496;22;45632;-80
2021/09/26 07:21:47;;;;;;;;;19.00;16.33;;;;;18.90;70.20;101175.16;6245519;22;45166;-82
2021/09/26 07:24:12;;;;;;;;;18.50;14.50;;;;;18.96;69.78;101169.75;6245974;22;45248;-81
2021/09/26 07:26:38;;;;;;;;;21.33;16.67;;;;;18.98;69.98;101171.53;6217985;22;47143;-82
2021/09/26 07:29:03;;;;;;;;;19.33;17.33;;;;;19.05;69.71;101179.44;6245112;22;45146;-82
2021/09/26 07:31:29;;;;;;;;;16.00;14.67;;;;;19.06;69.71;101176.75;6245745;22;45258;-82
2021/09/26 07:33:54;;;;;;;;;22.33;16.00;;;;;19.13;69.69;101182.00;6246301;22;45412;-81
2021/09/26 07:36:19;;;;;;;;;17.33;16.33;;;;;19.18;69.42;101191.78;6245596;22;45280;-81
2021/09/26 07:38:45;;;;;;;;;15.00;14.00;;;;;19.20;69.24;101199.75;6245193;22;45325;-81
2021/09/26 07:41:10;;;;;;;;;15.67;15.33;;;;;19.23;69.13;101202.38;6245470;22;45322;-81
2021/09/26 07:43:36;;;;;;;;;16.33;14.67;;;;;19.28;69.26;101207.66;6246047;22;45380;-81
2021/09/26 07:46:01;;;;;;;;;13.67;13.33;;;;;19.31;69.04;101204.97;6245608;22;45280;-79
2021/09/26 07:48:26;;;;;;;;;17.67;16.00;;;;;19.34;68.96;101215.56;6245462;22;45256;-79
2021/09/26 07:50:54;;;;;;;;;17.33;17.00;;;;;19.35;68.78;101224.47;6245902;22;45236;-80
2021/09/26 07:53:20;;;;;;;;;17.00;15.33;;;;;19.31;68.87;101218.28;6244890;22;45287;-80
2021/09/26 07:55:48;;;;;;;;;16.00;15.00;;;;;19.31;68.85;101216.47;6245296;22;45218;-84
2021/09/26 07:58:14;;;;;;;;;12.00;12.00;;;;;19.30;68.71;101214.75;6245549;22;45146;-85
2021/09/26 08:00:39;;;;;;;;;20.67;17.00;;;;;19.38;69.01;101229.75;6245872;22;45331;-81
2021/09/26 08:03:05;;;;;;;;;18.67;15.67;;;;;19.42;68.78;101226.13;6246580;22;45277;-81
2021/09/26 08:05:30;;;;;;;;;18.67;15.00;;;;;19.44;68.79;101229.66;6245115;22;46420;-82
2021/09/26 08:07:56;;;;;;;;;18.00;15.00;;;;;19.44;68.72;101227.00;6217642;22;45190;-88
2021/09/26 08:10:24;;;;;;;;;14.00;12.33;;;;;19.44;68.77;101227.00;6245764;22;45233;-88
2021/09/26 08:12:49;;;;;;;;;17.33;14.00;;;;;19.48;68.66;101234.06;6218480;22;45201;-82
2021/09/26 08:15:15;;;;;;;;;15.33;15.00;;;;;19.54;68.60;101236.66;6245035;22;45380;-82
2021/09/26 08:17:41;;;;;;;;;21.67;17.00;;;;;19.58;68.31;101232.19;6245133;22;45176;-82
2021/09/26 08:20:06;;;;;;;;;24.00;18.00;;;;;19.60;68.62;101232.16;6246407;22;45106;-82
2021/09/26 08:22:32;;;;;;;;;16.67;15.00;;;;;19.67;68.48;101236.53;6245736;22;45164;-81
2021/09/26 08:25:00;;;;;;;;;18.67;16.67;;;;;19.72;68.20;101234.66;6245156;22;45226;-81
2021/09/26 08:27:25;;;;;;;;;18.67;14.67;;;;;19.75;68.23;101225.75;6245676;22;45255;-81
2021/09/26 08:29:51;;;;;;;;;19.67;15.67;;;;;19.81;68.19;101239.00;6245694;22;45193;-81
2021/09/26 08:32:17;;;;;;;;;15.33;13.00;;;;;19.83;67.95;101236.31;6245409;22;45176;-82
2021/09/26 08:34:43;;;;;;;;;13.00;12.33;;;;;19.87;67.60;101243.38;6245380;22;45946;-83
2021/09/26 08:37:08;;;;;;;;;19.67;16.00;;;;;19.86;67.68;101247.81;6247257;22;45367;-81
2021/09/26 08:39:34;;;;;;;;;16.00;15.00;;;;;19.83;67.67;101250.53;6246224;22;45248;-82
2021/09/26 08:41:59;;;;;;;;;15.33;13.67;;;;;19.82;67.54;101250.56;6247335;22;45252;-83
2021/09/26 08:44:27;;;;;;;;;18.00;14.67;;;;;19.84;67.72;101251.44;6246050;22;45847;-81
2021/09/26 08:46:55;;;;;;;;;14.33;13.33;;;;;19.89;67.63;101246.91;6246090;22;45094;-82
2021/09/26 08:49:21;;;;;;;;;20.00;17.33;;;;;19.97;67.62;101254.78;6246467;22;45295;-82
2021/09/26 08:51:49;;;;;;;;;14.50;12.50;;;;;20.09;67.53;101249.34;6246055;22;45349;-82
2021/09/26 08:54:15;;;;;;;;;17.33;13.00;;;;;20.17;67.25;101251.91;6245825;22;47079;-82
2021/09/26 08:56:41;;;;;;;;;14.00;11.00;;;;;20.29;67.15;101244.59;6249409;22;45754;-81
2021/09/26 08:59:11;;;;;;;;;14.33;14.33;;;;;20.42;66.77;101255.97;6254841;22;45153;-81
2021/09/26 09:01:37;;;;;;;;;16.67;14.67;;;;;20.51;66.57;101246.94;6261642;22;45374;-84
2021/09/26 09:04:04;;;;;;;;;13.67;12.00;;;;;20.61;66.09;101243.22;6268013;22;45979;-81
2021/09/26 09:06:39;;;;;;;;;13.00;10.33;;;;;20.71;65.93;101252.81;6268130;22;45206;-83
2021/09/26 09:09:07;;;;;;;;;18.00;13.67;;;;;20.80;65.75;101248.22;6265775;22;44639;-81
2021/09/26 09:11:32;;;;;;;;;18.33;13.33;;;;;20.88;65.13;101240.97;6237314;22;44697;-80
2021/09/26 09:14:00;;;;;;;;;18.00;15.33;;;;;20.94;65.08;101231.94;6265158;22;45117;-80
2021/09/26 09:16:32;;;;;;;;;14.00;13.00;;;;;21.03;65.10;101238.94;6263675;22;44747;-80
2021/09/26 09:18:57;;;;;;;;;11.67;11.00;;;;;21.15;65.09;101235.19;6264250;22;45185;-81
2021/09/26 09:21:28;;;;;;;;;12.33;12.33;;;;;21.25;64.49;101230.53;6255902;22;45146;-82
2021/09/26 09:24:12;;;;;;;;;10.00;9.33;;;;;21.41;64.24;101231.09;6247669;22;45559;-81
2021/09/26 09:26:39;;;;;;;;;12.33;12.33;;;;;21.60;64.14;101226.25;6246816;22;45324;-81
2021/09/26 09:29:06;;;;;;;;;13.67;13.00;;;;;21.68;63.13;101228.75;6248190;22;45197;-81
2021/09/26 09:31:32;;;;;;;;;11.33;9.67;;;;;21.93;62.83;101227.41;6249212;22;45352;-82
2021/09/26 09:34:04;;;;;;;;;14.33;11.67;;;;;21.99;62.45;101227.25;6249963;22;45128;-82
2021/09/26 09:36:31;;;;;;;;;16.00;12.00;;;;;22.02;62.07;101237.88;6249562;22;45184;-83
2021/09/26 09:38:59;;;;;;;;;14.67;12.00;;;;;22.00;62.00;101237.03;6246218;22;45305;-81
2021/09/26 09:41:45;;;;;;;;;11.00;11.00;;;;;21.93;61.35;101239.00;6246301;22;45281;-82
2021/09/26 09:44:14;;;;;;;;;11.33;11.00;;;;;22.17;62.20;101243.78;6244814;22;45312;-82
2021/09/26 09:46:43;;;;;;;;;12.67;9.00;;;;;22.26;61.30;101240.91;6249584;22;45070;-81
2021/09/26 09:49:14;;;;;;;;;12.00;10.00;;;;;22.47;61.39;101238.63;6245467;22;45184;-82
2021/09/26 09:51:50;;;;;;;;;13.33;10.33;;;;;22.66;60.88;101246.22;6245119;22;45168;-82
2021/09/26 09:54:25;;;;;;;;;10.00;9.00;;;;;22.59;60.50;101248.16;6243834;22;45984;-81
2021/09/26 09:56:52;;;;;;;;;10.00;10.00;;;;;22.65;60.25;101248.00;6244193;22;45202;-83
2021/09/26 09:59:31;;;;;;;;;8.67;8.67;;;;;22.55;60.19;101258.06;6244285;22;45166;-81
2021/09/26 10:01:57;;;;;;;;;12.00;10.00;;;;;22.37;59.71;101253.16;6243957;22;45355;-84
2021/09/26 10:04:34;;;;;;;;;11.00;10.33;;;;;22.25;60.09;101252.53;6244689;22;45241;-83
2021/09/26 10:07:15;;;;;;;;;12.33;10.00;;;;;22.12;60.58;101240.34;6244289;22;45237;-83
2021/09/26 10:09:41;;;;;;;;;13.00;12.00;;;;;21.98;60.44;101252.25;6244683;22;45378;-82
2021/09/26 10:12:09;;;;;;;;;11.33;9.33;;;;;21.90;60.90;101257.78;6245201;22;45264;-83
2021/09/26 10:14:37;;;;;;;;;13.00;11.33;;;;;21.85;60.62;101255.19;6245891;22;46276;-83
2021/09/26 10:17:04;;;;;;;;;12.00;10.33;;;;;21.85;61.03;101251.63;6246044;22;45316;-83
2021/09/26 10:19:32;;;;;;;;;10.67;10.67;;;;;21.78;61.13;101245.53;6246080;22;45396;-82
2021/09/26 10:22:01;;;;;;;;;16.00;13.00;;;;;21.78;61.09;101255.34;6246349;22;45194;-84
2021/09/26 10:24:30;;;;;;;;;8.67;8.67;;;;;21.71;61.15;101251.91;6245392;22;46074;-80
2021/09/26 10:26:58;;;;;;;;;16.00;13.33;;;;;21.67;61.22;101253.78;6245894;22;45339;-82
2021/09/26 10:29:28;;;;;;;;;11.33;10.00;;;;;21.66;61.42;101257.34;6246152;22;45502;-82
2021/09/26 10:31:55;;;;;;;;;11.00;10.00;;;;;21.58;61.17;101241.47;6246193;22;45295;-82
2021/09/26 10:34:22;;;;;;;;;10.00;10.00;;;;;21.74;61.32;101242.00;6245960;22;45299;-82
2021/09/26 10:36:49;;;;;;;;;13.00;10.00;;;;;21.84;61.37;101253.44;6245852;22;45302;-82
2021/09/26 10:39:15;;;;;;;;;13.00;11.00;;;;;21.95;61.26;101246.97;6245484;22;45403;-82
2021/09/26 10:42:13;;;;;;;;;11.67;11.00;;;;;21.96;61.10;101238.91;6246225;22;45181;-83
2021/09/26 10:44:43;;;;;;;;;9.33;8.33;;;;;21.94;60.96;101245.19;6245814;22;45212;-81
2021/09/26 10:47:20;;;;;;;;;13.67;12.00;;;;;21.90;60.44;101243.50;6245488;22;45280;-81
2021/09/26 10:50:14;;;;;;;;;12.00;12.00;;;;;21.90;61.02;101251.53;6245230;22;45090;-81
2021/09/26 10:52:45;;;;;;;;;11.00;11.00;;;;;21.88;60.70;101245.34;6247655;22;45178;-89
2021/09/26 10:55:30;;;;;;;;;11.67;10.00;;;;;21.84;60.92;101244.53;6249120;22;46450;-88
2021/09/26 10:58:05;;;;;;;;;13.33;12.67;;;;;21.84;60.73;101248.09;6252074;22;45293;-90
2021/09/26 11:00:39;;;;;;;;;12.33;11.33;;;;;21.90;60.60;101243.50;6228535;22;45320;-89
2021/09/26 11:03:06;;;;;;;;;13.33;12.33;;;;;21.94;60.63;101245.19;6232725;22;45325;-90
2021/09/26 11:05:40;;;;;;;;;12.33;10.00;;;;;21.97;60.31;101237.13;6224328;22;47073;-92
2021/09/26 11:08:10;;;;;;;;;10.67;9.00;;;;;21.98;59.95;101225.47;6249801;22;45338;-92
2021/09/26 11:10:50;;;;;;;;;11.00;11.00;;;;;22.08;60.23;101220.81;6250822;22;45104;-89
2021/09/26 11:13:34;;;;;;;;;11.33;8.67;;;;;22.15;60.25;101213.50;6250842;22;45429;-92
2021/09/26 11:16:16;;;;;;;;;12.33;10.33;;;;;22.83;60.19;101219.00;6251030;22;45572;-94
2021/09/26 11:18:47;;;;;;;;;12.67;10.00;;;;;23.46;59.09;101222.69;6252274;22;45197;-82
2021/09/26 11:24:07;;;;;;;;;8.67;8.67;;;;;23.70;57.75;101220.19;6244215;22;45356;-82
2021/09/26 11:26:59;;;;;;;;;10.00;10.00;;;;;23.64;57.25;101225.75;6244966;22;45359;-82
2021/09/26 11:29:24;;;;;;;;;11.67;10.00;;;;;23.68;57.65;101214.88;6244843;22;45122;-79
2021/09/26 11:31:51;;;;;;;;;11.33;10.00;;;;;23.79;56.65;101221.72;6244835;22;45325;-80
2021/09/26 11:34:39;;;;;;;;;10.00;9.67;;;;;23.93;56.72;101206.06;6245963;22;45279;-78
2021/09/26 11:37:08;;;;;;;;;11.00;9.00;;;;;24.20;56.21;101218.66;6244962;22;46471;-81
2021/09/26 11:39:35;;;;;;;;;11.00;10.67;;;;;24.30;56.18;101213.91;6244611;22;45424;-81
2021/09/26 11:42:20;;;;;;;;;12.33;12.00;;;;;24.34;55.52;101204.81;6245101;22;45367;-81
2021/09/26 11:44:49;;;;;;;;;11.33;9.67;;;;;24.25;55.06;101205.13;6245030;22;45206;-81
2021/09/26 11:47:15;;;;;;;;;9.67;8.33;;;;;24.12;55.11;101208.16;6244678;22;45158;-80
2021/09/26 11:49:40;;;;;;;;;14.67;11.00;;;;;23.93;54.96;101203.38;6245102;22;45308;-81
2021/09/26 11:52:07;;;;;;;;;11.33;10.33;;;;;23.79;55.44;101195.78;6245247;22;45141;-86
2021/09/26 11:54:33;;;;;;;;;12.33;10.00;;;;;23.73;55.35;101190.59;6245205;22;45213;-84
2021/09/26 11:56:58;;;;;;;;;13.33;12.33;;;;;23.73;55.69;101187.91;6244729;22;46182;-80